Rhino — SVAF5 — position and weather

sailwx.info

Track history (hours):
 
Tides and Currents Weather Stations Pressure Air Temp Water Temp Dewpoint Dewpoint Depression Visibility Wind Speed Wind Dir Waves Ship Positions

Rhino

Last reported at 2017-Sep-18 12:07 UTC. Time now 2017-Sep-21 12:28 UTC.
Position N 39°31' E 023°46'.

Length 83 m; draft 4.9 m.

Type: Cargo ship. MMSI: 240985000.

Date/timePositionNaut miles runAvg speedWind from/ knotsBaromVisibWave heightAir tempDewpointWater temp
2017-Sep-18 12:07N 39°31' E 023°46'1 9.2
2017-Sep-18 11:59N 39°30' E 023°47'33 8.6
2017-Sep-18 08:09N 39°08' E 024°19'1 8.8
2017-Sep-18 07:59N 39°08' E 024°20'4 8.5
2017-Sep-18 07:30N 39°05' E 024°24'5 8.3
2017-Sep-18 06:56N 39°03' E 024°30'  
2017-Sep-15 18:07N 34°34' E 032°46'4 7.5
2017-Sep-15 17:39N 34°33' E 032°50'16 7.4
2017-Sep-15 15:28N 34°36' E 033°09'4 8.2
2017-Sep-15 15:00N 34°38' E 033°13'4 8.1
2017-Sep-15 14:30N 34°41' E 033°17'3 6.3
2017-Sep-15 14:00N 34°43' E 033°19'0 0.0
2017-Sep-14 17:24N 34°43' E 033°19'0 0.0
2017-Sep-14 17:00N 34°43' E 033°19'0 0.0
2017-Sep-14 16:30N 34°43' E 033°19'0 0.0
2017-Sep-14 15:57N 34°43' E 033°19'0 0.0
2017-Sep-14 15:30N 34°43' E 033°19'0 0.0
2017-Sep-14 15:00N 34°43' E 033°19'0 0.0
2017-Sep-14 14:15N 34°43' E 033°19'1 0.1
2017-Sep-14 01:26N 34°43' E 033°21'0 0.0
2017-Sep-14 01:00N 34°43' E 033°21'0 0.0
2017-Sep-14 00:30N 34°43' E 033°21'0 0.0
2017-Sep-14 00:00N 34°43' E 033°21'0 0.0
2017-Sep-13 23:30N 34°43' E 033°21'0 0.0
2017-Sep-13 23:00N 34°43' E 033°21'0 0.0
2017-Sep-13 22:30N 34°43' E 033°21'0 0.0
2017-Sep-13 21:54N 34°43' E 033°21'0 0.0
2017-Sep-13 21:30N 34°43' E 033°21'0 0.0
2017-Sep-13 21:00N 34°43' E 033°21'0 0.0
2017-Sep-13 19:54N 34°43' E 033°21'0 0.0
2017-Sep-13 19:30N 34°43' E 033°21'2 3.1
2017-Sep-13 19:00N 34°43' E 033°22'4 8.8
2017-Sep-13 18:30N 34°45' E 033°27'4 8.5
2017-Sep-13 18:00N 34°46' E 033°32'4 8.4
2017-Sep-13 17:28N 34°48' E 033°37'4 8.7
2017-Sep-13 17:00N 34°51' E 033°39'1 2.0
2017-Sep-13 16:30N 34°52' E 033°40'0 0.0
2017-Sep-13 15:59N 34°52' E 033°40'0 0.0
2017-Sep-13 15:30N 34°52' E 033°40'0 0.0
2017-Sep-13 15:00N 34°52' E 033°40'0 0.0
2017-Sep-13 14:31N 34°52' E 033°40'0 0.0
2017-Sep-13 14:00N 34°52' E 033°40'2 4.2
2017-Sep-13 13:30N 34°55' E 033°39'1 0.4
2017-Sep-13 10:07N 34°56' E 033°39'1 0.1
2017-Sep-13 03:09N 34°55' E 033°39'0 0.0
2017-Sep-13 01:18N 34°55' E 033°39'0 0.1
2017-Sep-13 01:00N 34°55' E 033°39'0 0.0
2017-Sep-13 00:30N 34°55' E 033°39'0 0.0
2017-Sep-13 00:00N 34°55' E 033°39'19 3.4
2017-Sep-12 18:28N 34°42' E 033°23'14 8.8
2017-Sep-12 16:49N 34°40' E 033°06'3 9.0
2017-Sep-12 16:29N 34°39' E 033°02'1 2.0
2017-Sep-12 15:55N 34°39' E 033°01'0 0.0
2017-Sep-12 15:25N 34°39' E 033°01'0 0.0
2017-Sep-12 14:43N 34°39' E 033°01'0 0.0
2017-Sep-12 14:25N 34°39' E 033°01'0 0.0
2017-Sep-12 13:59N 34°39' E 033°01'0 0.0
2017-Sep-12 13:30N 34°39' E 033°01'0 0.0
2017-Sep-12 13:00N 34°39' E 033°01'0 0.0
2017-Sep-12 12:30N 34°39' E 033°01'0 0.0
2017-Sep-12 12:00N 34°39' E 033°01'0 0.0
2017-Sep-12 11:30N 34°39' E 033°01'0 0.0
2017-Sep-12 11:00N 34°39' E 033°01'0 0.0
2017-Sep-12 10:30N 34°39' E 033°01'0 0.0
2017-Sep-12 10:00N 34°39' E 033°01'0 0.0
2017-Sep-12 09:30N 34°39' E 033°01'0 0.0
2017-Sep-12 09:00N 34°39' E 033°01'0 0.0
2017-Sep-12 08:30N 34°39' E 033°01'0 0.0
2017-Sep-12 08:00N 34°39' E 033°01'0 0.0
2017-Sep-12 07:30N 34°39' E 033°01'0 0.0
2017-Sep-12 07:00N 34°39' E 033°01'0 0.0
2017-Sep-12 06:30N 34°39' E 033°01'0 0.0
2017-Sep-12 06:00N 34°39' E 033°01'0 0.0
2017-Sep-12 05:30N 34°39' E 033°01'0 0.0
2017-Sep-12 05:00N 34°39' E 033°01'0 0.0
2017-Sep-12 04:30N 34°39' E 033°01'0 0.0
2017-Sep-12 04:00N 34°39' E 033°01'0 0.0
2017-Sep-12 03:30N 34°39' E 033°01'0 0.0
2017-Sep-12 03:00N 34°39' E 033°01'0 0.0
2017-Sep-12 02:30N 34°39' E 033°01'2 2.9
2017-Sep-12 01:57N 34°39' E 033°03'1 1.7
2017-Sep-12 01:21N 34°40' E 033°04'0 0.0
2017-Sep-12 01:00N 34°40' E 033°04'0 0.0
2017-Sep-12 00:30N 34°40' E 033°04'0 0.0
2017-Sep-11 23:45N 34°40' E 033°04'0 0.0
2017-Sep-11 23:30N 34°40' E 033°04'0 0.0
2017-Sep-11 20:27N 34°40' E 033°04'0 0.0
2017-Sep-11 20:01N 34°40' E 033°04'0 0.0
2017-Sep-11 19:13N 34°40' E 033°04'0 0.0
2017-Sep-11 19:00N 34°40' E 033°04'0 0.0
2017-Sep-11 18:31N 34°40' E 033°04'0 0.0
2017-Sep-11 17:54N 34°40' E 033°04'0 0.0
2017-Sep-11 17:22N 34°40' E 033°04'0 0.0
2017-Sep-11 17:01N 34°40' E 033°04'2 4.6
2017-Sep-11 16:30N 34°38' E 033°03'16 6.4
2017-Sep-11 13:59N 34°35' E 032°44'7 9.0
2017-Sep-11 13:15N 34°37' E 032°37'3 9.2
2017-Sep-11 12:56N 34°38' E 032°33'4 9.1
2017-Sep-11 12:30N 34°39' E 032°29'4 8.9
2017-Sep-11 12:01N 34°41' E 032°24'4 8.6
2017-Sep-11 11:31N 34°43' E 032°19'4 8.5
2017-Sep-11 11:01N 34°45' E 032°15'4 8.4
2017-Sep-11 10:31N 34°47' E 032°10'4 8.4
2017-Sep-11 10:01N 34°49' E 032°06'4 8.4
2017-Sep-11 09:31N 34°51' E 032°01'4 8.3
2017-Sep-11 09:00N 34°53' E 031°57'4 8.3
2017-Sep-11 08:30N 34°55' E 031°52'4 8.4
2017-Sep-11 08:00N 34°57' E 031°48'4 8.4
2017-Sep-11 07:31N 34°59' E 031°43'4 8.5
2017-Sep-11 07:00N 35°01' E 031°38'4 8.7
2017-Sep-11 06:30N 35°03' E 031°34'9 8.7
2017-Sep-11 05:26N 35°07' E 031°24'5 8.7
2017-Sep-11 04:54N 35°10' E 031°19'3 8.6
2017-Sep-11 04:30N 35°12' E 031°16'4 8.5
2017-Sep-11 04:00N 35°14' E 031°11'5 8.5
2017-Sep-11 03:26N 35°17' E 031°06'4 8.5
2017-Sep-11 03:00N 35°19' E 031°02'4 8.5
2017-Sep-11 02:30N 35°20' E 030°58'4 8.6
2017-Sep-11 02:00N 35°22' E 030°53'4 8.4
2017-Sep-11 01:31N 35°24' E 030°48'4 8.4
2017-Sep-11 01:01N 35°25' E 030°43'4 8.1
2017-Sep-11 00:31N 35°27' E 030°39'4 8.0
2017-Sep-11 00:00N 35°28' E 030°34'4 8.1
2017-Sep-10 23:31N 35°30' E 030°29'5 8.1
2017-Sep-10 22:57N 35°32' E 030°25'4 7.9
2017-Sep-10 22:30N 35°34' E 030°21'84 7.8
2017-Sep-10 11:48N 36°14' E 028°50'2 6.6
2017-Sep-10 11:31N 36°15' E 028°48'155 7.9
2017-Sep-09 15:50N 37°26' E 025°56'3 8.1
2017-Sep-09 15:31N 37°28' E 025°53'15 8.1
2017-Sep-09 13:35N 37°38' E 025°39'1 8.2
2017-Sep-09 13:31N 37°39' E 025°38'4 8.4
2017-Sep-09 13:00N 37°42' E 025°34'4 8.5
2017-Sep-09 12:31N 37°45' E 025°30'4 8.6
2017-Sep-09 12:01N 37°48' E 025°26'5 8.6
2017-Sep-09 11:29N 37°50' E 025°22'4 8.5
2017-Sep-09 11:00N 37°53' E 025°18'4 8.3
2017-Sep-09 10:31N 37°55' E 025°14'18 8.9
2017-Sep-09 08:27N 38°08' E 024°57'  
Track history (hours):
 
Tides and Currents Weather Stations Pressure Air Temp Water Temp Dewpoint Dewpoint Depression Visibility Wind Speed Wind Dir Waves Ship Positions

Rhino

Last reported at 2017-Sep-18 12:07 UTC. Time now 2017-Sep-21 12:28 UTC.
Position N 39°31' E 023°46'.

Length 83 m; draft 4.9 m.

Type: Cargo ship. MMSI: 240985000.

Date/timePositionNaut miles runAvg speedWind from/ knotsBaromVisibWave heightAir tempDewpointWater temp
2017-Sep-18 12:07N 39°31' E 023°46'1 9.2
2017-Sep-18 11:59N 39°30' E 023°47'33 8.6
2017-Sep-18 08:09N 39°08' E 024°19'1 8.8
2017-Sep-18 07:59N 39°08' E 024°20'4 8.5
2017-Sep-18 07:30N 39°05' E 024°24'5 8.3
2017-Sep-18 06:56N 39°03' E 024°30'  
2017-Sep-15 18:07N 34°34' E 032°46'4 7.5
2017-Sep-15 17:39N 34°33' E 032°50'16 7.4
2017-Sep-15 15:28N 34°36' E 033°09'4 8.2
2017-Sep-15 15:00N 34°38' E 033°13'4 8.1
2017-Sep-15 14:30N 34°41' E 033°17'3 6.3
2017-Sep-15 14:00N 34°43' E 033°19'0 0.0
2017-Sep-14 17:24N 34°43' E 033°19'0 0.0
2017-Sep-14 17:00N 34°43' E 033°19'0 0.0
2017-Sep-14 16:30N 34°43' E 033°19'0 0.0
2017-Sep-14 15:57N 34°43' E 033°19'0 0.0
2017-Sep-14 15:30N 34°43' E 033°19'0 0.0
2017-Sep-14 15:00N 34°43' E 033°19'0 0.0
2017-Sep-14 14:15N 34°43' E 033°19'1 0.1
2017-Sep-14 01:26N 34°43' E 033°21'0 0.0
2017-Sep-14 01:00N 34°43' E 033°21'0 0.0
2017-Sep-14 00:30N 34°43' E 033°21'0 0.0
2017-Sep-14 00:00N 34°43' E 033°21'0 0.0
2017-Sep-13 23:30N 34°43' E 033°21'0 0.0
2017-Sep-13 23:00N 34°43' E 033°21'0 0.0
2017-Sep-13 22:30N 34°43' E 033°21'0 0.0
2017-Sep-13 21:54N 34°43' E 033°21'0 0.0
2017-Sep-13 21:30N 34°43' E 033°21'0 0.0
2017-Sep-13 21:00N 34°43' E 033°21'0 0.0
2017-Sep-13 19:54N 34°43' E 033°21'0 0.0
2017-Sep-13 19:30N 34°43' E 033°21'2 3.1
2017-Sep-13 19:00N 34°43' E 033°22'4 8.8
2017-Sep-13 18:30N 34°45' E 033°27'4 8.5
2017-Sep-13 18:00N 34°46' E 033°32'4 8.4
2017-Sep-13 17:28N 34°48' E 033°37'4 8.7
2017-Sep-13 17:00N 34°51' E 033°39'1 2.0
2017-Sep-13 16:30N 34°52' E 033°40'0 0.0
2017-Sep-13 15:59N 34°52' E 033°40'0 0.0
2017-Sep-13 15:30N 34°52' E 033°40'0 0.0
2017-Sep-13 15:00N 34°52' E 033°40'0 0.0
2017-Sep-13 14:31N 34°52' E 033°40'0 0.0
2017-Sep-13 14:00N 34°52' E 033°40'2 4.2
2017-Sep-13 13:30N 34°55' E 033°39'1 0.4
2017-Sep-13 10:07N 34°56' E 033°39'1 0.1
2017-Sep-13 03:09N 34°55' E 033°39'0 0.0
2017-Sep-13 01:18N 34°55' E 033°39'0 0.1
2017-Sep-13 01:00N 34°55' E 033°39'0 0.0
2017-Sep-13 00:30N 34°55' E 033°39'0 0.0
2017-Sep-13 00:00N 34°55' E 033°39'19 3.4
2017-Sep-12 18:28N 34°42' E 033°23'14 8.8
2017-Sep-12 16:49N 34°40' E 033°06'3 9.0
2017-Sep-12 16:29N 34°39' E 033°02'1 2.0
2017-Sep-12 15:55N 34°39' E 033°01'0 0.0
2017-Sep-12 15:25N 34°39' E 033°01'0 0.0
2017-Sep-12 14:43N 34°39' E 033°01'0 0.0
2017-Sep-12 14:25N 34°39' E 033°01'0 0.0
2017-Sep-12 13:59N 34°39' E 033°01'0 0.0
2017-Sep-12 13:30N 34°39' E 033°01'0 0.0
2017-Sep-12 13:00N 34°39' E 033°01'0 0.0
2017-Sep-12 12:30N 34°39' E 033°01'0 0.0
2017-Sep-12 12:00N 34°39' E 033°01'0 0.0
2017-Sep-12 11:30N 34°39' E 033°01'0 0.0
2017-Sep-12 11:00N 34°39' E 033°01'0 0.0
2017-Sep-12 10:30N 34°39' E 033°01'0 0.0
2017-Sep-12 10:00N 34°39' E 033°01'0 0.0
2017-Sep-12 09:30N 34°39' E 033°01'0 0.0
2017-Sep-12 09:00N 34°39' E 033°01'0 0.0
2017-Sep-12 08:30N 34°39' E 033°01'0 0.0
2017-Sep-12 08:00N 34°39' E 033°01'0 0.0
2017-Sep-12 07:30N 34°39' E 033°01'0 0.0
2017-Sep-12 07:00N 34°39' E 033°01'0 0.0
2017-Sep-12 06:30N 34°39' E 033°01'0 0.0
2017-Sep-12 06:00N 34°39' E 033°01'0 0.0
2017-Sep-12 05:30N 34°39' E 033°01'0 0.0
2017-Sep-12 05:00N 34°39' E 033°01'0 0.0
2017-Sep-12 04:30N 34°39' E 033°01'0 0.0
2017-Sep-12 04:00N 34°39' E 033°01'0 0.0
2017-Sep-12 03:30N 34°39' E 033°01'0 0.0
2017-Sep-12 03:00N 34°39' E 033°01'0 0.0
2017-Sep-12 02:30N 34°39' E 033°01'2 2.9
2017-Sep-12 01:57N 34°39' E 033°03'1 1.7
2017-Sep-12 01:21N 34°40' E 033°04'0 0.0
2017-Sep-12 01:00N 34°40' E 033°04'0 0.0
2017-Sep-12 00:30N 34°40' E 033°04'0 0.0
2017-Sep-11 23:45N 34°40' E 033°04'0 0.0
2017-Sep-11 23:30N 34°40' E 033°04'0 0.0
2017-Sep-11 20:27N 34°40' E 033°04'0 0.0
2017-Sep-11 20:01N 34°40' E 033°04'0 0.0
2017-Sep-11 19:13N 34°40' E 033°04'0 0.0
2017-Sep-11 19:00N 34°40' E 033°04'0 0.0
2017-Sep-11 18:31N 34°40' E 033°04'0 0.0
2017-Sep-11 17:54N 34°40' E 033°04'0 0.0
2017-Sep-11 17:22N 34°40' E 033°04'0 0.0
2017-Sep-11 17:01N 34°40' E 033°04'2 4.6
2017-Sep-11 16:30N 34°38' E 033°03'16 6.4
2017-Sep-11 13:59N 34°35' E 032°44'7 9.0
2017-Sep-11 13:15N 34°37' E 032°37'3 9.2
2017-Sep-11 12:56N 34°38' E 032°33'4 9.1
2017-Sep-11 12:30N 34°39' E 032°29'4 8.9
2017-Sep-11 12:01N 34°41' E 032°24'4 8.6
2017-Sep-11 11:31N 34°43' E 032°19'4 8.5
2017-Sep-11 11:01N 34°45' E 032°15'4 8.4
2017-Sep-11 10:31N 34°47' E 032°10'4 8.4
2017-Sep-11 10:01N 34°49' E 032°06'4 8.4
2017-Sep-11 09:31N 34°51' E 032°01'4 8.3
2017-Sep-11 09:00N 34°53' E 031°57'4 8.3
2017-Sep-11 08:30N 34°55' E 031°52'4 8.4
2017-Sep-11 08:00N 34°57' E 031°48'4 8.4
2017-Sep-11 07:31N 34°59' E 031°43'4 8.5
2017-Sep-11 07:00N 35°01' E 031°38'4 8.7
2017-Sep-11 06:30N 35°03' E 031°34'9 8.7
2017-Sep-11 05:26N 35°07' E 031°24'5 8.7
2017-Sep-11 04:54N 35°10' E 031°19'3 8.6
2017-Sep-11 04:30N 35°12' E 031°16'4 8.5
2017-Sep-11 04:00N 35°14' E 031°11'5 8.5
2017-Sep-11 03:26N 35°17' E 031°06'4 8.5
2017-Sep-11 03:00N 35°19' E 031°02'4 8.5
2017-Sep-11 02:30N 35°20' E 030°58'4 8.6
2017-Sep-11 02:00N 35°22' E 030°53'4 8.4
2017-Sep-11 01:31N 35°24' E 030°48'4 8.4
2017-Sep-11 01:01N 35°25' E 030°43'4 8.1
2017-Sep-11 00:31N 35°27' E 030°39'4 8.0
2017-Sep-11 00:00N 35°28' E 030°34'4 8.1
2017-Sep-10 23:31N 35°30' E 030°29'5 8.1
2017-Sep-10 22:57N 35°32' E 030°25'4 7.9
2017-Sep-10 22:30N 35°34' E 030°21'84 7.8
2017-Sep-10 11:48N 36°14' E 028°50'2 6.6
2017-Sep-10 11:31N 36°15' E 028°48'155 7.9
2017-Sep-09 15:50N 37°26' E 025°56'3 8.1
2017-Sep-09 15:31N 37°28' E 025°53'15 8.1
2017-Sep-09 13:35N 37°38' E 025°39'1 8.2
2017-Sep-09 13:31N 37°39' E 025°38'4 8.4
2017-Sep-09 13:00N 37°42' E 025°34'4 8.5
2017-Sep-09 12:31N 37°45' E 025°30'4 8.6
2017-Sep-09 12:01N 37°48' E 025°26'5 8.6
2017-Sep-09 11:29N 37°50' E 025°22'4 8.5
2017-Sep-09 11:00N 37°53' E 025°18'4 8.3
2017-Sep-09 10:31N 37°55' E 025°14'18 8.9
2017-Sep-09 08:27N 38°08' E 024°57'  

Dump ship's entire track history